sensor_id;sensor_type;location;lat;lon;timestamp;temperature;humidity
5176;DHT22;2607;50.934;6.934;2023-05-23T00:00:09;16.80;99.90
5176;DHT22;2607;50.934;6.934;2023-05-23T00:02:35;16.70;99.90
5176;DHT22;2607;50.934;6.934;2023-05-23T00:05:02;16.60;99.90
5176;DHT22;2607;50.934;6.934;2023-05-23T00:07:28;16.60;99.90
5176;DHT22;2607;50.934;6.934;2023-05-23T00:09:53;16.60;99.90
5176;DHT22;2607;50.934;6.934;2023-05-23T00:12:19;16.60;99.90
5176;DHT22;2607;50.934;6.934;2023-05-23T00:14:44;16.60;99.90
5176;DHT22;2607;50.934;6.934;2023-05-23T00:17:10;16.50;99.90
5176;DHT22;2607;50.934;6.934;2023-05-23T00:19:36;16.40;99.90
5176;DHT22;2607;50.934;6.934;2023-05-23T00:22:02;16.40;99.90
5176;DHT22;2607;50.934;6.934;2023-05-23T00:24:27;16.40;99.90
5176;DHT22;2607;50.934;6.934;2023-05-23T00:26:53;16.30;99.90
5176;DHT22;2607;50.934;6.934;2023-05-23T00:29:19;16.30;99.90
5176;DHT22;2607;50.934;6.934;2023-05-23T00:31:45;16.20;99.90
5176;DHT22;2607;50.934;6.934;2023-05-23T00:34:15;16.20;99.90
5176;DHT22;2607;50.934;6.934;2023-05-23T00:36:42;16.20;99.90
5176;DHT22;2607;50.934;6.934;2023-05-23T00:39:08;16.10;99.90
5176;DHT22;2607;50.934;6.934;2023-05-23T00:41:34;16.10;99.90
5176;DHT22;2607;50.934;6.934;2023-05-23T00:44:00;16.10;99.90
5176;DHT22;2607;50.934;6.934;2023-05-23T00:46:27;16.00;99.90
5176;DHT22;2607;50.934;6.934;2023-05-23T00:48:53;16.00;99.90
5176;DHT22;2607;50.934;6.934;2023-05-23T00:51:20;16.00;99.90
5176;DHT22;2607;50.934;6.934;2023-05-23T00:53:46;16.00;99.90
5176;DHT22;2607;50.934;6.934;2023-05-23T00:56:12;16.00;99.90
5176;DHT22;2607;50.934;6.934;2023-05-23T00:58:39;16.00;99.90
5176;DHT22;2607;50.934;6.934;2023-05-23T01:01:05;16.00;99.90
5176;DHT22;2607;50.934;6.934;2023-05-23T01:03:31;16.00;99.90
5176;DHT22;2607;50.934;6.934;2023-05-23T01:05:56;16.10;99.90
5176;DHT22;2607;50.934;6.934;2023-05-23T01:08:22;16.10;99.90
5176;DHT22;2607;50.934;6.934;2023-05-23T01:10:48;16.10;99.90
5176;DHT22;2607;50.934;6.934;2023-05-23T01:13:41;16.20;99.90
5176;DHT22;2607;50.934;6.934;2023-05-23T01:16:38;16.20;99.90
5176;DHT22;2607;50.934;6.934;2023-05-23T01:19:21;16.20;99.90
5176;DHT22;2607;50.934;6.934;2023-05-23T01:21:55;16.40;99.90
5176;DHT22;2607;50.934;6.934;2023-05-23T01:24:35;16.30;99.90
5176;DHT22;2607;50.934;6.934;2023-05-23T01:27:22;16.60;99.90
5176;DHT22;2607;50.934;6.934;2023-05-23T01:29:55;16.50;99.90
5176;DHT22;2607;50.934;6.934;2023-05-23T01:32:22;16.50;99.90
5176;DHT22;2607;50.934;6.934;2023-05-23T01:34:52;16.50;99.90
5176;DHT22;2607;50.934;6.934;2023-05-23T01:37:17;16.50;99.90
5176;DHT22;2607;50.934;6.934;2023-05-23T01:39:44;16.40;99.90
5176;DHT22;2607;50.934;6.934;2023-05-23T01:42:10;16.40;99.90
5176;DHT22;2607;50.934;6.934;2023-05-23T01:44:37;16.30;99.90
5176;DHT22;2607;50.934;6.934;2023-05-23T01:47:05;16.30;99.90
5176;DHT22;2607;50.934;6.934;2023-05-23T01:49:33;16.30;99.90
5176;DHT22;2607;50.934;6.934;2023-05-23T01:52:00;16.40;99.90
5176;DHT22;2607;50.934;6.934;2023-05-23T01:54:27;16.40;99.90
5176;DHT22;2607;50.934;6.934;2023-05-23T01:56:58;16.40;99.90
5176;DHT22;2607;50.934;6.934;2023-05-23T01:59:24;16.40;99.90
5176;DHT22;2607;50.934;6.934;2023-05-23T02:01:50;16.40;99.90
5176;DHT22;2607;50.934;6.934;2023-05-23T02:04:15;16.40;99.90
5176;DHT22;2607;50.934;6.934;2023-05-23T02:06:41;16.40;99.90
5176;DHT22;2607;50.934;6.934;2023-05-23T02:09:07;16.30;99.90
5176;DHT22;2607;50.934;6.934;2023-05-23T02:11:33;16.20;99.90
5176;DHT22;2607;50.934;6.934;2023-05-23T02:13:58;16.20;99.90
5176;DHT22;2607;50.934;6.934;2023-05-23T02:16:24;16.10;99.90
5176;DHT22;2607;50.934;6.934;2023-05-23T02:18:50;16.10;99.90
5176;DHT22;2607;50.934;6.934;2023-05-23T02:21:17;16.10;99.90
5176;DHT22;2607;50.934;6.934;2023-05-23T02:23:43;16.10;99.90
5176;DHT22;2607;50.934;6.934;2023-05-23T02:26:08;16.10;99.90
5176;DHT22;2607;50.934;6.934;2023-05-23T02:28:34;16.10;99.90
5176;DHT22;2607;50.934;6.934;2023-05-23T02:31:00;16.10;99.90
5176;DHT22;2607;50.934;6.934;2023-05-23T02:33:26;16.10;99.90
5176;DHT22;2607;50.934;6.934;2023-05-23T02:35:51;16.00;99.90
5176;DHT22;2607;50.934;6.934;2023-05-23T02:38:17;16.00;99.90
5176;DHT22;2607;50.934;6.934;2023-05-23T02:40:44;16.00;99.90
5176;DHT22;2607;50.934;6.934;2023-05-23T02:43:10;16.00;99.90
5176;DHT22;2607;50.934;6.934;2023-05-23T02:45:35;16.00;99.90
5176;DHT22;2607;50.934;6.934;2023-05-23T02:48:01;16.00;99.90
5176;DHT22;2607;50.934;6.934;2023-05-23T02:50:26;16.00;99.90
5176;DHT22;2607;50.934;6.934;2023-05-23T02:52:52;16.00;99.90
5176;DHT22;2607;50.934;6.934;2023-05-23T02:55:18;16.00;99.90
5176;DHT22;2607;50.934;6.934;2023-05-23T02:57:43;16.00;99.90
5176;DHT22;2607;50.934;6.934;2023-05-23T03:00:09;16.00;99.90
5176;DHT22;2607;50.934;6.934;2023-05-23T03:02:36;16.00;99.90
5176;DHT22;2607;50.934;6.934;2023-05-23T03:05:01;16.00;99.90
5176;DHT22;2607;50.934;6.934;2023-05-23T03:07:28;16.00;99.90
5176;DHT22;2607;50.934;6.934;2023-05-23T03:09:55;16.00;99.90
5176;DHT22;2607;50.934;6.934;2023-05-23T03:12:20;16.00;99.90
5176;DHT22;2607;50.934;6.934;2023-05-23T03:14:46;15.90;99.90
5176;DHT22;2607;50.934;6.934;2023-05-23T03:17:12;15.90;99.90
5176;DHT22;2607;50.934;6.934;2023-05-23T03:19:38;16.00;99.90
5176;DHT22;2607;50.934;6.934;2023-05-23T03:22:04;15.90;99.90
5176;DHT22;2607;50.934;6.934;2023-05-23T03:24:29;15.90;99.90
5176;DHT22;2607;50.934;6.934;2023-05-23T03:26:56;15.90;99.90
5176;DHT22;2607;50.934;6.934;2023-05-23T03:29:21;15.90;99.90
5176;DHT22;2607;50.934;6.934;2023-05-23T03:31:47;16.00;99.90
5176;DHT22;2607;50.934;6.934;2023-05-23T03:34:13;16.00;99.90
5176;DHT22;2607;50.934;6.934;2023-05-23T03:36:38;16.00;99.90
5176;DHT22;2607;50.934;6.934;2023-05-23T03:39:04;16.00;99.90
5176;DHT22;2607;50.934;6.934;2023-05-23T03:41:30;15.90;99.90
5176;DHT22;2607;50.934;6.934;2023-05-23T03:43:56;15.90;99.90
5176;DHT22;2607;50.934;6.934;2023-05-23T03:46:21;16.00;99.90
5176;DHT22;2607;50.934;6.934;2023-05-23T03:48:47;15.90;99.90
5176;DHT22;2607;50.934;6.934;2023-05-23T03:51:12;15.80;99.90
5176;DHT22;2607;50.934;6.934;2023-05-23T03:53:38;15.80;99.90
5176;DHT22;2607;50.934;6.934;2023-05-23T03:56:04;15.70;99.90
5176;DHT22;2607;50.934;6.934;2023-05-23T03:58:29;15.70;99.90
5176;DHT22;2607;50.934;6.934;2023-05-23T04:00:55;15.70;99.90
5176;DHT22;2607;50.934;6.934;2023-05-23T04:03:20;15.80;99.90
5176;DHT22;2607;50.934;6.934;2023-05-23T04:05:46;15.80;99.90
5176;DHT22;2607;50.934;6.934;2023-05-23T04:08:11;15.70;99.90
5176;DHT22;2607;50.934;6.934;2023-05-23T04:10:37;15.80;99.90
5176;DHT22;2607;50.934;6.934;2023-05-23T04:13:03;15.70;99.90
5176;DHT22;2607;50.934;6.934;2023-05-23T04:15:28;15.60;99.90
5176;DHT22;2607;50.934;6.934;2023-05-23T04:17:54;15.70;99.90
5176;DHT22;2607;50.934;6.934;2023-05-23T04:20:20;15.70;99.90
5176;DHT22;2607;50.934;6.934;2023-05-23T04:22:46;15.70;99.90
5176;DHT22;2607;50.934;6.934;2023-05-23T04:25:12;15.70;99.90
5176;DHT22;2607;50.934;6.934;2023-05-23T04:27:38;15.70;99.90
5176;DHT22;2607;50.934;6.934;2023-05-23T04:30:07;15.70;99.90
5176;DHT22;2607;50.934;6.934;2023-05-23T04:32:34;15.70;99.90
5176;DHT22;2607;50.934;6.934;2023-05-23T04:35:00;15.80;99.90
5176;DHT22;2607;50.934;6.934;2023-05-23T04:37:29;15.80;99.90
5176;DHT22;2607;50.934;6.934;2023-05-23T04:39:57;15.70;99.90
5176;DHT22;2607;50.934;6.934;2023-05-23T04:42:24;15.70;99.90
5176;DHT22;2607;50.934;6.934;2023-05-23T04:44:50;15.70;99.90
5176;DHT22;2607;50.934;6.934;2023-05-23T04:47:16;15.70;99.90
5176;DHT22;2607;50.934;6.934;2023-05-23T04:49:42;15.70;99.90
5176;DHT22;2607;50.934;6.934;2023-05-23T04:52:07;15.80;99.90
5176;DHT22;2607;50.934;6.934;2023-05-23T04:54:33;15.70;99.90
5176;DHT22;2607;50.934;6.934;2023-05-23T04:57:00;15.70;99.90
5176;DHT22;2607;50.934;6.934;2023-05-23T04:59:26;15.70;99.90
5176;DHT22;2607;50.934;6.934;2023-05-23T05:01:51;15.60;99.90
5176;DHT22;2607;50.934;6.934;2023-05-23T05:04:17;15.60;99.90
5176;DHT22;2607;50.934;6.934;2023-05-23T05:06:42;15.60;99.90
5176;DHT22;2607;50.934;6.934;2023-05-23T05:09:08;15.70;99.90
5176;DHT22;2607;50.934;6.934;2023-05-23T05:11:33;15.70;99.90
5176;DHT22;2607;50.934;6.934;2023-05-23T05:13:59;15.70;99.90
5176;DHT22;2607;50.934;6.934;2023-05-23T05:16:24;15.70;99.90
5176;DHT22;2607;50.934;6.934;2023-05-23T05:18:50;15.70;99.90
5176;DHT22;2607;50.934;6.934;2023-05-23T05:21:16;15.70;99.90
5176;DHT22;2607;50.934;6.934;2023-05-23T05:23:41;15.70;99.90
5176;DHT22;2607;50.934;6.934;2023-05-23T05:26:08;15.70;99.90
5176;DHT22;2607;50.934;6.934;2023-05-23T05:28:34;15.70;99.90
5176;DHT22;2607;50.934;6.934;2023-05-23T05:30:59;15.70;99.90
5176;DHT22;2607;50.934;6.934;2023-05-23T05:33:29;15.70;99.90
5176;DHT22;2607;50.934;6.934;2023-05-23T05:36:04;15.80;99.90
5176;DHT22;2607;50.934;6.934;2023-05-23T05:38:30;15.80;99.90
5176;DHT22;2607;50.934;6.934;2023-05-23T05:40:56;15.70;99.90
5176;DHT22;2607;50.934;6.934;2023-05-23T05:43:22;15.70;99.90
5176;DHT22;2607;50.934;6.934;2023-05-23T05:45:47;15.80;99.90
5176;DHT22;2607;50.934;6.934;2023-05-23T05:48:13;15.80;99.90
5176;DHT22;2607;50.934;6.934;2023-05-23T05:50:39;15.80;99.90
5176;DHT22;2607;50.934;6.934;2023-05-23T05:53:04;15.80;99.90
5176;DHT22;2607;50.934;6.934;2023-05-23T05:55:30;15.80;99.90
5176;DHT22;2607;50.934;6.934;2023-05-23T05:57:55;15.80;99.90
5176;DHT22;2607;50.934;6.934;2023-05-23T06:00:21;15.80;99.90
5176;DHT22;2607;50.934;6.934;2023-05-23T06:02:47;15.80;99.90
5176;DHT22;2607;50.934;6.934;2023-05-23T06:05:13;15.90;99.90
5176;DHT22;2607;50.934;6.934;2023-05-23T06:07:44;15.90;99.90
5176;DHT22;2607;50.934;6.934;2023-05-23T06:10:12;15.80;99.90
5176;DHT22;2607;50.934;6.934;2023-05-23T06:12:38;15.80;99.90
5176;DHT22;2607;50.934;6.934;2023-05-23T06:15:05;15.80;99.90
5176;DHT22;2607;50.934;6.934;2023-05-23T06:17:30;15.80;99.90
5176;DHT22;2607;50.934;6.934;2023-05-23T06:19:56;15.70;99.90
5176;DHT22;2607;50.934;6.934;2023-05-23T06:22:21;15.70;99.90
5176;DHT22;2607;50.934;6.934;2023-05-23T06:24:47;15.80;99.90
5176;DHT22;2607;50.934;6.934;2023-05-23T06:27:12;15.80;99.90
5176;DHT22;2607;50.934;6.934;2023-05-23T06:29:38;15.80;99.90
5176;DHT22;2607;50.934;6.934;2023-05-23T06:32:04;16.00;99.90
5176;DHT22;2607;50.934;6.934;2023-05-23T06:34:30;16.10;99.90
5176;DHT22;2607;50.934;6.934;2023-05-23T06:36:56;16.00;99.90
5176;DHT22;2607;50.934;6.934;2023-05-23T06:39:21;15.90;99.90
5176;DHT22;2607;50.934;6.934;2023-05-23T06:41:47;15.90;99.90
5176;DHT22;2607;50.934;6.934;2023-05-23T06:44:13;15.90;99.90
5176;DHT22;2607;50.934;6.934;2023-05-23T06:46:38;15.80;99.90
5176;DHT22;2607;50.934;6.934;2023-05-23T06:49:04;15.80;99.90
5176;DHT22;2607;50.934;6.934;2023-05-23T06:51:30;15.80;99.90
5176;DHT22;2607;50.934;6.934;2023-05-23T06:53:56;15.80;99.90
5176;DHT22;2607;50.934;6.934;2023-05-23T06:56:22;15.90;99.90
5176;DHT22;2607;50.934;6.934;2023-05-23T06:58:48;15.90;99.90
5176;DHT22;2607;50.934;6.934;2023-05-23T07:01:13;15.90;99.90
5176;DHT22;2607;50.934;6.934;2023-05-23T07:03:39;15.90;99.90
5176;DHT22;2607;50.934;6.934;2023-05-23T07:06:07;15.90;99.90
5176;DHT22;2607;50.934;6.934;2023-05-23T07:08:33;15.90;99.90
5176;DHT22;2607;50.934;6.934;2023-05-23T07:10:58;15.90;99.90
5176;DHT22;2607;50.934;6.934;2023-05-23T07:13:24;15.90;99.90
5176;DHT22;2607;50.934;6.934;2023-05-23T07:15:50;15.90;99.90
5176;DHT22;2607;50.934;6.934;2023-05-23T07:18:15;15.90;99.90
5176;DHT22;2607;50.934;6.934;2023-05-23T07:20:41;16.00;99.90
5176;DHT22;2607;50.934;6.934;2023-05-23T07:23:06;16.10;99.90
5176;DHT22;2607;50.934;6.934;2023-05-23T07:25:32;16.10;99.90
5176;DHT22;2607;50.934;6.934;2023-05-23T07:27:57;16.10;99.90
5176;DHT22;2607;50.934;6.934;2023-05-23T07:30:23;16.10;99.90
5176;DHT22;2607;50.934;6.934;2023-05-23T07:32:48;16.10;99.90
5176;DHT22;2607;50.934;6.934;2023-05-23T07:35:14;16.10;99.90
5176;DHT22;2607;50.934;6.934;2023-05-23T07:37:41;16.10;99.90
5176;DHT22;2607;50.934;6.934;2023-05-23T07:40:07;16.20;99.90
5176;DHT22;2607;50.934;6.934;2023-05-23T07:42:33;16.20;99.90
5176;DHT22;2607;50.934;6.934;2023-05-23T07:44:59;16.10;99.90
5176;DHT22;2607;50.934;6.934;2023-05-23T07:47:25;16.00;99.90
5176;DHT22;2607;50.934;6.934;2023-05-23T07:49:52;16.10;99.90
5176;DHT22;2607;50.934;6.934;2023-05-23T07:52:17;16.20;99.90
5176;DHT22;2607;50.934;6.934;2023-05-23T07:54:43;16.10;99.90
5176;DHT22;2607;50.934;6.934;2023-05-23T07:57:09;16.10;99.90
5176;DHT22;2607;50.934;6.934;2023-05-23T07:59:34;16.10;99.90
5176;DHT22;2607;50.934;6.934;2023-05-23T08:02:00;16.10;99.90
5176;DHT22;2607;50.934;6.934;2023-05-23T08:04:27;16.10;99.90
5176;DHT22;2607;50.934;6.934;2023-05-23T08:06:52;16.10;99.90
5176;DHT22;2607;50.934;6.934;2023-05-23T08:09:18;16.10;99.90
5176;DHT22;2607;50.934;6.934;2023-05-23T08:11:43;16.10;99.90
5176;DHT22;2607;50.934;6.934;2023-05-23T08:14:09;16.20;99.90
5176;DHT22;2607;50.934;6.934;2023-05-23T08:16:35;16.20;99.90
5176;DHT22;2607;50.934;6.934;2023-05-23T08:19:01;16.20;99.90
5176;DHT22;2607;50.934;6.934;2023-05-23T08:21:27;16.20;99.90
5176;DHT22;2607;50.934;6.934;2023-05-23T08:23:53;16.20;99.90
5176;DHT22;2607;50.934;6.934;2023-05-23T08:26:18;16.30;99.90
5176;DHT22;2607;50.934;6.934;2023-05-23T08:28:44;16.20;99.90
5176;DHT22;2607;50.934;6.934;2023-05-23T08:31:09;16.20;99.90
5176;DHT22;2607;50.934;6.934;2023-05-23T08:33:35;16.20;99.90
5176;DHT22;2607;50.934;6.934;2023-05-23T08:36:01;16.20;99.90
5176;DHT22;2607;50.934;6.934;2023-05-23T08:38:27;16.10;99.90
5176;DHT22;2607;50.934;6.934;2023-05-23T08:40:53;16.10;99.90
5176;DHT22;2607;50.934;6.934;2023-05-23T08:43:20;16.20;99.90
5176;DHT22;2607;50.934;6.934;2023-05-23T08:45:47;16.20;99.90
5176;DHT22;2607;50.934;6.934;2023-05-23T08:48:13;16.20;99.90
5176;DHT22;2607;50.934;6.934;2023-05-23T08:50:42;16.20;99.90
5176;DHT22;2607;50.934;6.934;2023-05-23T08:53:15;16.10;99.90
5176;DHT22;2607;50.934;6.934;2023-05-23T08:55:48;16.20;99.90
5176;DHT22;2607;50.934;6.934;2023-05-23T08:58:17;16.10;99.90
5176;DHT22;2607;50.934;6.934;2023-05-23T09:00:46;16.10;99.90
5176;DHT22;2607;50.934;6.934;2023-05-23T09:03:12;16.10;99.90
5176;DHT22;2607;50.934;6.934;2023-05-23T09:05:38;16.10;99.90
5176;DHT22;2607;50.934;6.934;2023-05-23T09:08:04;16.10;99.90
5176;DHT22;2607;50.934;6.934;2023-05-23T09:10:29;16.10;99.90
5176;DHT22;2607;50.934;6.934;2023-05-23T09:12:55;16.10;99.90
5176;DHT22;2607;50.934;6.934;2023-05-23T09:15:22;16.10;99.90
5176;DHT22;2607;50.934;6.934;2023-05-23T09:17:48;16.10;99.90
5176;DHT22;2607;50.934;6.934;2023-05-23T09:20:16;16.10;99.90
5176;DHT22;2607;50.934;6.934;2023-05-23T09:22:45;16.10;99.90
5176;DHT22;2607;50.934;6.934;2023-05-23T09:25:12;16.10;99.90
5176;DHT22;2607;50.934;6.934;2023-05-23T09:27:38;16.10;99.90
5176;DHT22;2607;50.934;6.934;2023-05-23T09:30:08;16.10;99.90
5176;DHT22;2607;50.934;6.934;2023-05-23T09:32:34;16.10;99.90
5176;DHT22;2607;50.934;6.934;2023-05-23T09:35:01;16.00;99.90
5176;DHT22;2607;50.934;6.934;2023-05-23T09:37:44;16.00;99.90
5176;DHT22;2607;50.934;6.934;2023-05-23T09:40:13;16.00;99.90
5176;DHT22;2607;50.934;6.934;2023-05-23T09:42:46;15.90;99.90
5176;DHT22;2607;50.934;6.934;2023-05-23T09:45:13;15.90;99.90
5176;DHT22;2607;50.934;6.934;2023-05-23T09:47:51;15.90;99.90
5176;DHT22;2607;50.934;6.934;2023-05-23T09:50:17;15.80;99.90
5176;DHT22;2607;50.934;6.934;2023-05-23T09:52:43;15.80;99.90
5176;DHT22;2607;50.934;6.934;2023-05-23T09:55:09;15.80;99.90
5176;DHT22;2607;50.934;6.934;2023-05-23T09:57:38;15.70;99.90
5176;DHT22;2607;50.934;6.934;2023-05-23T10:00:04;15.60;99.90
5176;DHT22;2607;50.934;6.934;2023-05-23T10:07:58;15.60;99.90
5176;DHT22;2607;50.934;6.934;2023-05-23T10:10:25;15.60;99.90
5176;DHT22;2607;50.934;6.934;2023-05-23T10:12:55;15.60;99.90
5176;DHT22;2607;50.934;6.934;2023-05-23T10:15:26;15.60;99.90
5176;DHT22;2607;50.934;6.934;2023-05-23T10:18:15;15.70;99.90
5176;DHT22;2607;50.934;6.934;2023-05-23T10:20:47;15.70;99.90
5176;DHT22;2607;50.934;6.934;2023-05-23T10:23:14;15.80;99.90
5176;DHT22;2607;50.934;6.934;2023-05-23T10:25:41;15.90;99.90
5176;DHT22;2607;50.934;6.934;2023-05-23T10:28:08;15.90;99.90
5176;DHT22;2607;50.934;6.934;2023-05-23T10:30:34;16.00;99.90
5176;DHT22;2607;50.934;6.934;2023-05-23T10:33:01;16.10;99.90
5176;DHT22;2607;50.934;6.934;2023-05-23T10:41:08;16.20;99.90
5176;DHT22;2607;50.934;6.934;2023-05-23T10:43:50;16.20;99.90
5176;DHT22;2607;50.934;6.934;2023-05-23T10:46:19;16.20;99.90
5176;DHT22;2607;50.934;6.934;2023-05-23T10:48:46;16.10;99.90
5176;DHT22;2607;50.934;6.934;2023-05-23T10:51:13;16.20;99.90
5176;DHT22;2607;50.934;6.934;2023-05-23T10:53:41;16.30;99.90
5176;DHT22;2607;50.934;6.934;2023-05-23T10:56:17;16.20;99.90
5176;DHT22;2607;50.934;6.934;2023-05-23T10:58:43;16.10;99.90
5176;DHT22;2607;50.934;6.934;2023-05-23T11:01:14;16.20;99.90
5176;DHT22;2607;50.934;6.934;2023-05-23T11:09:04;16.00;99.90
5176;DHT22;2607;50.934;6.934;2023-05-23T11:11:59;16.00;99.90
5176;DHT22;2607;50.934;6.934;2023-05-23T11:14:51;15.80;99.90
5176;DHT22;2607;50.934;6.934;2023-05-23T11:17:28;15.70;99.90
5176;DHT22;2607;50.934;6.934;2023-05-23T11:20:08;15.60;99.90
5176;DHT22;2607;50.934;6.934;2023-05-23T11:22:34;15.60;99.90
5176;DHT22;2607;50.934;6.934;2023-05-23T11:25:02;15.60;99.90
5176;DHT22;2607;50.934;6.934;2023-05-23T11:27:32;15.60;99.90
5176;DHT22;2607;50.934;6.934;2023-05-23T11:30:15;15.50;99.90
5176;DHT22;2607;50.934;6.934;2023-05-23T11:32:48;15.60;99.90
5176;DHT22;2607;50.934;6.934;2023-05-23T11:35:15;15.70;99.90
5176;DHT22;2607;50.934;6.934;2023-05-23T11:37:42;15.60;99.90
5176;DHT22;2607;50.934;6.934;2023-05-23T11:40:28;15.60;99.90
5176;DHT22;2607;50.934;6.934;2023-05-23T11:42:54;15.60;99.90
5176;DHT22;2607;50.934;6.934;2023-05-23T11:45:21;15.60;99.90
5176;DHT22;2607;50.934;6.934;2023-05-23T11:47:47;15.80;99.90
5176;DHT22;2607;50.934;6.934;2023-05-23T11:50:13;15.80;99.90
5176;DHT22;2607;50.934;6.934;2023-05-23T11:52:39;15.90;99.90
5176;DHT22;2607;50.934;6.934;2023-05-23T11:55:06;15.90;99.90
5176;DHT22;2607;50.934;6.934;2023-05-23T11:57:32;16.10;99.90
5176;DHT22;2607;50.934;6.934;2023-05-23T11:59:58;16.30;99.90
5176;DHT22;2607;50.934;6.934;2023-05-23T12:02:27;16.40;99.90
5176;DHT22;2607;50.934;6.934;2023-05-23T12:04:52;16.50;99.90
5176;DHT22;2607;50.934;6.934;2023-05-23T12:07:19;16.70;99.90
5176;DHT22;2607;50.934;6.934;2023-05-23T12:09:45;16.90;99.90
5176;DHT22;2607;50.934;6.934;2023-05-23T12:12:12;16.90;99.90
5176;DHT22;2607;50.934;6.934;2023-05-23T12:14:38;16.90;99.90
5176;DHT22;2607;50.934;6.934;2023-05-23T12:17:10;16.90;99.90
5176;DHT22;2607;50.934;6.934;2023-05-23T12:19:37;17.00;99.90
5176;DHT22;2607;50.934;6.934;2023-05-23T12:22:06;16.90;99.90
5176;DHT22;2607;50.934;6.934;2023-05-23T12:24:32;17.00;99.90
5176;DHT22;2607;50.934;6.934;2023-05-23T12:26:58;17.00;99.90
5176;DHT22;2607;50.934;6.934;2023-05-23T12:29:29;17.10;99.90
5176;DHT22;2607;50.934;6.934;2023-05-23T12:31:57;17.20;99.90
5176;DHT22;2607;50.934;6.934;2023-05-23T12:34:23;17.20;99.90
5176;DHT22;2607;50.934;6.934;2023-05-23T12:36:49;17.20;99.60
5176;DHT22;2607;50.934;6.934;2023-05-23T12:39:31;17.30;99.30
5176;DHT22;2607;50.934;6.934;2023-05-23T12:42:08;17.20;99.30
5176;DHT22;2607;50.934;6.934;2023-05-23T12:44:34;17.20;99.10
5176;DHT22;2607;50.934;6.934;2023-05-23T12:47:01;17.40;98.30
5176;DHT22;2607;50.934;6.934;2023-05-23T12:49:27;17.30;98.40
5176;DHT22;2607;50.934;6.934;2023-05-23T12:51:52;17.30;98.10
5176;DHT22;2607;50.934;6.934;2023-05-23T12:54:18;17.30;98.40
5176;DHT22;2607;50.934;6.934;2023-05-23T12:56:43;17.30;98.60
5176;DHT22;2607;50.934;6.934;2023-05-23T12:59:09;17.30;98.80
5176;DHT22;2607;50.934;6.934;2023-05-23T13:01:35;17.40;98.10
5176;DHT22;2607;50.934;6.934;2023-05-23T13:04:01;17.40;98.10
5176;DHT22;2607;50.934;6.934;2023-05-23T13:06:27;17.30;97.70
5176;DHT22;2607;50.934;6.934;2023-05-23T13:08:52;17.30;97.80
5176;DHT22;2607;50.934;6.934;2023-05-23T13:11:20;17.30;98.10
5176;DHT22;2607;50.934;6.934;2023-05-23T13:13:47;17.30;97.90
5176;DHT22;2607;50.934;6.934;2023-05-23T13:16:12;17.30;98.20
5176;DHT22;2607;50.934;6.934;2023-05-23T13:18:38;17.40;97.50
5176;DHT22;2607;50.934;6.934;2023-05-23T13:21:04;17.60;96.10
5176;DHT22;2607;50.934;6.934;2023-05-23T13:23:29;17.50;96.20
5176;DHT22;2607;50.934;6.934;2023-05-23T13:25:55;17.50;95.80
5176;DHT22;2607;50.934;6.934;2023-05-23T13:28:22;17.50;96.20
5176;DHT22;2607;50.934;6.934;2023-05-23T13:30:49;17.40;96.60
5176;DHT22;2607;50.934;6.934;2023-05-23T13:33:15;17.50;96.70
5176;DHT22;2607;50.934;6.934;2023-05-23T13:35:40;17.60;96.20
5176;DHT22;2607;50.934;6.934;2023-05-23T13:38:06;17.60;96.10
5176;DHT22;2607;50.934;6.934;2023-05-23T13:40:32;17.70;96.00
5176;DHT22;2607;50.934;6.934;2023-05-23T13:42:57;17.80;95.60
5176;DHT22;2607;50.934;6.934;2023-05-23T13:45:23;17.90;95.30
5176;DHT22;2607;50.934;6.934;2023-05-23T13:47:49;17.90;95.00
5176;DHT22;2607;50.934;6.934;2023-05-23T13:50:15;17.80;95.00
5176;DHT22;2607;50.934;6.934;2023-05-23T13:52:41;17.70;95.30
5176;DHT22;2607;50.934;6.934;2023-05-23T13:55:06;17.70;94.90
5176;DHT22;2607;50.934;6.934;2023-05-23T13:57:32;17.70;94.00
5176;DHT22;2607;50.934;6.934;2023-05-23T13:59:57;17.70;94.10
5176;DHT22;2607;50.934;6.934;2023-05-23T14:02:23;17.70;92.90
5176;DHT22;2607;50.934;6.934;2023-05-23T14:04:48;17.80;91.80
5176;DHT22;2607;50.934;6.934;2023-05-23T14:07:16;17.70;91.90
5176;DHT22;2607;50.934;6.934;2023-05-23T14:09:41;17.80;91.50
5176;DHT22;2607;50.934;6.934;2023-05-23T14:12:07;17.70;91.00
5176;DHT22;2607;50.934;6.934;2023-05-23T14:14:33;17.80;90.90
5176;DHT22;2607;50.934;6.934;2023-05-23T14:16:58;17.70;91.10
5176;DHT22;2607;50.934;6.934;2023-05-23T14:19:24;17.80;90.50
5176;DHT22;2607;50.934;6.934;2023-05-23T14:21:49;17.70;90.50
5176;DHT22;2607;50.934;6.934;2023-05-23T14:24:15;17.60;91.00
5176;DHT22;2607;50.934;6.934;2023-05-23T14:26:41;17.60;90.30
5176;DHT22;2607;50.934;6.934;2023-05-23T14:29:06;17.60;90.30
5176;DHT22;2607;50.934;6.934;2023-05-23T14:31:32;17.60;90.20
5176;DHT22;2607;50.934;6.934;2023-05-23T14:33:57;17.50;90.50
5176;DHT22;2607;50.934;6.934;2023-05-23T14:36:24;17.60;90.50
5176;DHT22;2607;50.934;6.934;2023-05-23T14:38:50;17.60;90.40
5176;DHT22;2607;50.934;6.934;2023-05-23T14:41:16;17.60;90.50
5176;DHT22;2607;50.934;6.934;2023-05-23T14:43:42;17.60;90.60
5176;DHT22;2607;50.934;6.934;2023-05-23T14:46:07;17.70;90.70
5176;DHT22;2607;50.934;6.934;2023-05-23T14:48:33;17.80;90.20
5176;DHT22;2607;50.934;6.934;2023-05-23T14:50:59;17.80;90.40
5176;DHT22;2607;50.934;6.934;2023-05-23T14:53:27;17.90;89.50
5176;DHT22;2607;50.934;6.934;2023-05-23T14:55:52;17.90;89.40
5176;DHT22;2607;50.934;6.934;2023-05-23T14:58:18;18.00;89.20
5176;DHT22;2607;50.934;6.934;2023-05-23T15:00:44;17.90;89.10
5176;DHT22;2607;50.934;6.934;2023-05-23T15:03:12;18.00;89.00
5176;DHT22;2607;50.934;6.934;2023-05-23T15:05:37;17.90;88.60
5176;DHT22;2607;50.934;6.934;2023-05-23T15:08:03;18.00;88.00
5176;DHT22;2607;50.934;6.934;2023-05-23T15:10:28;18.00;88.50
5176;DHT22;2607;50.934;6.934;2023-05-23T15:12:54;18.00;87.90
5176;DHT22;2607;50.934;6.934;2023-05-23T15:15:20;18.00;87.40
5176;DHT22;2607;50.934;6.934;2023-05-23T15:17:48;17.90;87.10
5176;DHT22;2607;50.934;6.934;2023-05-23T15:20:15;17.90;87.60
5176;DHT22;2607;50.934;6.934;2023-05-23T15:22:40;17.80;88.20
5176;DHT22;2607;50.934;6.934;2023-05-23T15:25:09;17.80;88.40
5176;DHT22;2607;50.934;6.934;2023-05-23T15:27:35;17.90;88.10
5176;DHT22;2607;50.934;6.934;2023-05-23T15:30:02;17.90;88.00
5176;DHT22;2607;50.934;6.934;2023-05-23T15:32:27;18.00;87.10
5176;DHT22;2607;50.934;6.934;2023-05-23T15:34:53;18.00;86.30
5176;DHT22;2607;50.934;6.934;2023-05-23T15:37:18;18.10;86.70
5176;DHT22;2607;50.934;6.934;2023-05-23T15:39:44;18.00;87.50
5176;DHT22;2607;50.934;6.934;2023-05-23T15:42:10;18.10;87.30
5176;DHT22;2607;50.934;6.934;2023-05-23T15:44:35;18.20;86.80
5176;DHT22;2607;50.934;6.934;2023-05-23T15:47:01;18.20;87.40
5176;DHT22;2607;50.934;6.934;2023-05-23T15:49:26;18.20;87.40
5176;DHT22;2607;50.934;6.934;2023-05-23T15:51:52;18.30;87.30
5176;DHT22;2607;50.934;6.934;2023-05-23T15:54:18;18.30;87.10
5176;DHT22;2607;50.934;6.934;2023-05-23T15:56:44;18.40;86.90
5176;DHT22;2607;50.934;6.934;2023-05-23T15:59:09;18.50;85.70
5176;DHT22;2607;50.934;6.934;2023-05-23T16:01:35;18.50;84.90
5176;DHT22;2607;50.934;6.934;2023-05-23T16:04:01;18.60;83.30
5176;DHT22;2607;50.934;6.934;2023-05-23T16:06:27;18.60;82.40
5176;DHT22;2607;50.934;6.934;2023-05-23T16:08:53;18.50;82.90
5176;DHT22;2607;50.934;6.934;2023-05-23T16:11:19;18.40;82.70
5176;DHT22;2607;50.934;6.934;2023-05-23T16:13:46;18.30;82.40
5176;DHT22;2607;50.934;6.934;2023-05-23T16:16:12;18.30;82.90